Time;durP1;ratioP1;P1;durP2;ratioP2;P2;SDS_P1;SDS_P2;PMS_P1;PMS_P2;Temp;Humidity;BMP_temperature;BMP_pressure;BME280_temperature;BME280_humidity;BME280_pressure;Samples;Min_cycle;Max_cycle;Signal;HPM_P1;HPM_P2
2021/10/31 00:02:16;;;;;;;43.45;22.05;;;;;;;;;;4991369;28;20038;-81
2021/10/31 00:04:42;;;;;;;65.18;24.95;;;;;;;;;;4979108;28;20046;-81
2021/10/31 00:07:08;;;;;;;50.88;23.17;;;;;;;;;;5001070;28;20046;-81
2021/10/31 00:09:34;;;;;;;48.03;23.42;;;;;;;;;;4978967;28;20081;-81
2021/10/31 00:12:00;;;;;;;57.53;25.95;;;;;;;;;;4988417;28;20100;-81
2021/10/31 00:14:27;;;;;;;58.08;26.38;;;;;;;;;;4993758;28;20044;-80
2021/10/31 00:16:58;;;;;;;62.67;27.42;;;;;;;;;;4994641;28;20128;-81
2021/10/31 00:19:25;;;;;;;59.65;26.63;;;;;;;;;;5000701;28;20076;-81
2021/10/31 00:21:51;;;;;;;58.30;26.10;;;;;;;;;;4993885;28;20096;-81
2021/10/31 00:24:17;;;;;;;72.25;28.50;;;;;;;;;;5011088;28;20393;-81
2021/10/31 00:26:43;;;;;;;63.67;29.67;;;;;;;;;;4979744;28;20046;-80
2021/10/31 00:29:09;;;;;;;83.05;30.63;;;;;;;;;;4979878;28;20080;-80
2021/10/31 00:31:35;;;;;;;62.22;27.83;;;;;;;;;;5007830;28;20050;-81
2021/10/31 00:34:01;;;;;;;54.40;26.48;;;;;;;;;;4976436;28;20062;-80
2021/10/31 00:36:27;;;;;;;66.57;28.88;;;;;;;;;;5009044;28;20042;-81
2021/10/31 00:38:53;;;;;;;68.40;29.50;;;;;;;;;;5004215;28;20075;-81
2021/10/31 00:41:19;;;;;;;67.13;31.15;;;;;;;;;;5003816;28;20056;-81
2021/10/31 00:43:46;;;;;;;93.30;34.17;;;;;;;;;;4984333;28;20042;-78
2021/10/31 00:46:12;;;;;;;79.70;32.13;;;;;;;;;;5008358;28;20084;-81
2021/10/31 00:48:39;;;;;;;81.55;35.00;;;;;;;;;;4995185;28;20120;-81
2021/10/31 00:51:05;;;;;;;87.22;35.33;;;;;;;;;;5012003;28;20485;-81
2021/10/31 00:53:32;;;;;;;81.80;34.85;;;;;;;;;;5008749;28;20057;-80
2021/10/31 00:55:59;;;;;;;89.90;34.33;;;;;;;;;;5005715;28;20042;-81
2021/10/31 00:58:25;;;;;;;80.00;34.78;;;;;;;;;;5010599;28;20129;-80
2021/10/31 01:00:52;;;;;;;63.75;30.83;;;;;;;;;;5008814;28;20038;-81
2021/10/31 01:03:18;;;;;;;105.72;36.17;;;;;;;;;;4996520;28;20046;-81
2021/10/31 01:05:54;;;;;;;76.40;31.27;;;;;;;;;;5009338;28;20050;-81
2021/10/31 01:08:44;;;;;;;84.10;34.05;;;;;;;;;;4988408;28;20078;-81
2021/10/31 01:11:13;;;;;;;101.82;36.08;;;;;;;;;;5005543;28;20054;-80
2021/10/31 01:13:56;;;;;;;84.97;33.28;;;;;;;;;;4999227;28;20054;-81
2021/10/31 01:16:29;;;;;;;85.47;32.65;;;;;;;;;;5002015;28;20045;-81
2021/10/31 01:19:06;;;;;;;71.70;32.80;;;;;;;;;;4990450;28;20057;-80
2021/10/31 01:21:51;;;;;;;69.95;30.13;;;;;;;;;;4999662;28;20049;-81
2021/10/31 01:24:23;;;;;;;84.53;33.53;;;;;;;;;;4979584;28;20382;-80
2021/10/31 01:26:52;;;;;;;81.78;33.13;;;;;;;;;;5009731;28;20045;-80
2021/10/31 01:29:37;;;;;;;96.38;35.72;;;;;;;;;;5006387;28;20053;-81
2021/10/31 01:32:03;;;;;;;90.57;35.67;;;;;;;;;;5002745;28;20061;-81
2021/10/31 01:34:32;;;;;;;93.75;35.17;;;;;;;;;;5008135;28;20034;-80
2021/10/31 01:36:58;;;;;;;75.68;32.17;;;;;;;;;;4984826;28;20054;-80
2021/10/31 01:39:29;;;;;;;73.15;31.88;;;;;;;;;;5005647;28;20128;-81
2021/10/31 01:42:05;;;;;;;79.95;32.42;;;;;;;;;;5008791;28;20038;-80
2021/10/31 01:44:38;;;;;;;112.78;37.75;;;;;;;;;;5009508;28;20436;-80
2021/10/31 01:47:15;;;;;;;97.07;35.97;;;;;;;;;;5008667;28;20060;-81
2021/10/31 01:49:45;;;;;;;102.93;37.88;;;;;;;;;;5010155;28;20112;-81
2021/10/31 01:52:18;;;;;;;80.50;34.70;;;;;;;;;;5009556;28;20441;-81
2021/10/31 01:54:58;;;;;;;88.85;35.92;;;;;;;;;;5005721;28;20155;-81
2021/10/31 01:57:25;;;;;;;71.82;32.95;;;;;;;;;;5008731;28;20053;-80
2021/10/31 02:00:02;;;;;;;108.95;39.10;;;;;;;;;;5024551;28;20048;-80
2021/10/31 02:02:29;;;;;;;94.78;37.90;;;;;;;;;;5009388;28;20053;-80
2021/10/31 02:04:55;;;;;;;91.88;36.35;;;;;;;;;;5024821;28;20057;-80
2021/10/31 02:07:22;;;;;;;91.53;37.88;;;;;;;;;;5006536;28;20046;-81
2021/10/31 02:09:50;;;;;;;91.70;38.45;;;;;;;;;;5008849;28;20050;-80
2021/10/31 02:12:18;;;;;;;94.50;37.85;;;;;;;;;;4984849;28;20054;-81
2021/10/31 02:14:45;;;;;;;102.88;39.13;;;;;;;;;;4998230;28;20049;-81
2021/10/31 02:17:11;;;;;;;127.30;43.42;;;;;;;;;;5023018;28;20068;-81
2021/10/31 02:19:41;;;;;;;101.95;39.15;;;;;;;;;;5015572;28;20088;-81
2021/10/31 02:22:14;;;;;;;103.90;41.20;;;;;;;;;;5012462;28;20046;-80
2021/10/31 02:24:41;;;;;;;86.38;36.88;;;;;;;;;;4996675;28;20077;-80
2021/10/31 02:27:17;;;;;;;114.65;42.75;;;;;;;;;;4994139;28;20132;-80
2021/10/31 02:29:44;;;;;;;119.38;44.17;;;;;;;;;;4988833;28;20062;-80
2021/10/31 02:32:10;;;;;;;129.77;46.92;;;;;;;;;;4990700;28;20045;-81
2021/10/31 02:34:36;;;;;;;114.22;42.20;;;;;;;;;;4991483;28;20100;-81
2021/10/31 02:37:02;;;;;;;89.10;38.67;;;;;;;;;;4968798;28;20038;-80
2021/10/31 02:39:28;;;;;;;134.82;44.53;;;;;;;;;;5010399;28;20046;-81
2021/10/31 02:41:55;;;;;;;108.75;44.20;;;;;;;;;;5008890;28;20049;-80
2021/10/31 02:44:21;;;;;;;126.43;47.28;;;;;;;;;;5008594;28;20085;-80
2021/10/31 02:46:47;;;;;;;99.30;41.42;;;;;;;;;;5006969;28;20046;-80
2021/10/31 02:49:13;;;;;;;123.88;44.22;;;;;;;;;;5012802;28;20046;-80
2021/10/31 02:51:58;;;;;;;148.63;45.92;;;;;;;;;;5007843;28;20076;-80
2021/10/31 02:54:43;;;;;;;77.82;38.20;;;;;;;;;;5002186;28;20072;-80
2021/10/31 02:57:14;;;;;;;86.63;39.08;;;;;;;;;;5009190;28;20057;-80
2021/10/31 02:59:48;;;;;;;115.18;43.22;;;;;;;;;;5000748;28;20104;-81
2021/10/31 03:02:15;;;;;;;116.45;45.05;;;;;;;;;;4983803;28;20057;-80
2021/10/31 03:04:42;;;;;;;117.55;43.67;;;;;;;;;;5009109;28;20135;-81
2021/10/31 03:07:09;;;;;;;120.40;44.53;;;;;;;;;;4979275;28;20053;-80
2021/10/31 03:09:35;;;;;;;131.43;45.53;;;;;;;;;;5012210;28;20133;-80
2021/10/31 03:12:02;;;;;;;120.03;46.60;;;;;;;;;;4976856;28;20078;-80
2021/10/31 03:14:29;;;;;;;127.88;47.65;;;;;;;;;;4983797;28;20465;-80
2021/10/31 03:16:56;;;;;;;115.20;44.10;;;;;;;;;;5010030;28;20050;-80
2021/10/31 03:19:22;;;;;;;90.20;41.67;;;;;;;;;;5005486;28;20046;-80
2021/10/31 03:21:48;;;;;;;134.10;45.47;;;;;;;;;;4994916;28;20046;-79
2021/10/31 03:24:15;;;;;;;108.50;45.10;;;;;;;;;;5009812;28;20053;-80
2021/10/31 03:26:41;;;;;;;102.85;43.90;;;;;;;;;;5003671;28;20049;-80
2021/10/31 03:29:07;;;;;;;95.55;41.47;;;;;;;;;;4993270;28;20100;-79
2021/10/31 03:31:33;;;;;;;125.10;46.63;;;;;;;;;;4966680;28;20054;-80
2021/10/31 03:33:59;;;;;;;108.13;43.55;;;;;;;;;;4985654;28;20046;-80
2021/10/31 03:36:25;;;;;;;111.88;45.65;;;;;;;;;;5010325;28;20397;-80
2021/10/31 03:38:51;;;;;;;126.80;46.97;;;;;;;;;;4994194;28;20073;-80
2021/10/31 03:41:17;;;;;;;149.73;50.13;;;;;;;;;;5010305;28;20074;-80
2021/10/31 03:43:44;;;;;;;109.53;43.90;;;;;;;;;;4990904;28;20041;-80
2021/10/31 03:46:10;;;;;;;112.50;45.63;;;;;;;;;;5010772;28;20053;-79
2021/10/31 03:48:36;;;;;;;127.15;49.15;;;;;;;;;;5008683;28;20125;-79
2021/10/31 03:51:03;;;;;;;129.85;49.28;;;;;;;;;;5005448;28;20058;-80
2021/10/31 03:53:29;;;;;;;113.95;49.05;;;;;;;;;;4988993;28;20053;-80
2021/10/31 03:55:55;;;;;;;130.23;49.33;;;;;;;;;;4983904;28;20056;-80
2021/10/31 03:58:21;;;;;;;139.57;50.10;;;;;;;;;;4993595;28;20038;-79
2021/10/31 04:00:47;;;;;;;124.85;49.80;;;;;;;;;;5011869;28;20053;-80
2021/10/31 04:03:13;;;;;;;128.13;52.05;;;;;;;;;;4986929;28;20049;-80
2021/10/31 04:05:39;;;;;;;116.32;49.42;;;;;;;;;;4990199;28;20057;-80
2021/10/31 04:08:06;;;;;;;131.27;52.20;;;;;;;;;;5010654;28;20053;-79
2021/10/31 04:10:32;;;;;;;131.07;54.25;;;;;;;;;;4991864;28;20410;-80
2021/10/31 04:12:58;;;;;;;145.38;54.72;;;;;;;;;;4998027;28;20413;-79
2021/10/31 04:15:24;;;;;;;154.63;56.47;;;;;;;;;;4976544;28;21424;-79
2021/10/31 04:17:51;;;;;;;155.95;57.42;;;;;;;;;;4999445;28;20406;-80
2021/10/31 04:20:17;;;;;;;152.98;59.45;;;;;;;;;;5002586;28;20046;-80
2021/10/31 04:22:45;;;;;;;142.40;57.05;;;;;;;;;;4992576;28;20054;-80
2021/10/31 04:25:11;;;;;;;146.85;55.75;;;;;;;;;;5008715;28;20133;-80
2021/10/31 04:27:37;;;;;;;135.70;57.05;;;;;;;;;;5003233;28;20038;-80
2021/10/31 04:30:05;;;;;;;142.15;57.72;;;;;;;;;;5005843;28;20089;-77
2021/10/31 04:32:32;;;;;;;161.07;63.13;;;;;;;;;;5006551;28;20054;-80
2021/10/31 04:34:58;;;;;;;138.48;60.08;;;;;;;;;;4993352;28;20141;-80
2021/10/31 04:37:25;;;;;;;127.97;57.42;;;;;;;;;;5009442;28;20592;-79
2021/10/31 04:39:51;;;;;;;140.63;57.22;;;;;;;;;;4989384;28;20117;-80
2021/10/31 04:42:18;;;;;;;175.93;63.40;;;;;;;;;;4971507;28;20449;-80
2021/10/31 04:44:44;;;;;;;121.15;53.60;;;;;;;;;;5004834;28;20045;-80
2021/10/31 04:47:10;;;;;;;120.53;52.60;;;;;;;;;;4979741;28;20104;-79
2021/10/31 04:49:36;;;;;;;105.25;49.63;;;;;;;;;;4993147;28;20474;-79
2021/10/31 04:52:03;;;;;;;137.88;53.97;;;;;;;;;;4985436;28;20058;-80
2021/10/31 04:54:30;;;;;;;139.68;54.08;;;;;;;;;;4996438;28;20053;-79
2021/10/31 04:56:56;;;;;;;121.45;51.63;;;;;;;;;;4997950;28;20435;-80
2021/10/31 04:59:22;;;;;;;109.72;49.60;;;;;;;;;;4997370;28;20046;-80
2021/10/31 05:01:49;;;;;;;88.28;43.85;;;;;;;;;;4996688;28;20402;-79
2021/10/31 05:04:17;;;;;;;107.50;48.58;;;;;;;;;;4985014;28;20066;-79
2021/10/31 05:06:43;;;;;;;101.82;49.00;;;;;;;;;;5010072;28;20131;-80
2021/10/31 05:09:09;;;;;;;116.45;52.10;;;;;;;;;;4997590;28;20041;-79
2021/10/31 05:11:36;;;;;;;128.48;52.05;;;;;;;;;;5007819;28;20050;-80
2021/10/31 05:14:02;;;;;;;110.25;49.40;;;;;;;;;;5002628;28;20420;-80
2021/10/31 05:16:28;;;;;;;130.93;53.40;;;;;;;;;;5002996;28;20453;-80
2021/10/31 05:18:55;;;;;;;127.07;50.58;;;;;;;;;;5005813;28;20374;-80
2021/10/31 05:21:21;;;;;;;114.40;51.10;;;;;;;;;;4978914;28;20501;-79
2021/10/31 05:23:47;;;;;;;113.93;49.30;;;;;;;;;;4976707;28;20446;-79
2021/10/31 05:26:14;;;;;;;123.65;52.67;;;;;;;;;;4998307;28;20445;-79
2021/10/31 05:28:40;;;;;;;143.25;55.35;;;;;;;;;;4997543;28;20104;-80
2021/10/31 05:31:06;;;;;;;124.88;53.83;;;;;;;;;;5004186;28;20042;-77
2021/10/31 05:33:32;;;;;;;147.98;55.20;;;;;;;;;;4999252;28;20054;-79
2021/10/31 05:35:58;;;;;;;133.63;54.50;;;;;;;;;;5010201;28;20048;-80
2021/10/31 05:38:24;;;;;;;140.32;54.10;;;;;;;;;;4987270;28;20133;-80
2021/10/31 05:40:51;;;;;;;145.02;55.65;;;;;;;;;;5005513;28;20418;-80
2021/10/31 05:43:17;;;;;;;139.75;52.97;;;;;;;;;;4994513;28;20050;-80
2021/10/31 05:45:43;;;;;;;132.60;52.95;;;;;;;;;;5008447;28;20045;-80
2021/10/31 05:48:10;;;;;;;135.55;54.33;;;;;;;;;;4996779;28;20050;-78
2021/10/31 05:50:37;;;;;;;143.00;52.40;;;;;;;;;;4996534;28;20084;-79
2021/10/31 05:53:03;;;;;;;122.72;50.70;;;;;;;;;;4999314;28;20438;-80
2021/10/31 05:55:29;;;;;;;154.38;55.95;;;;;;;;;;4999362;28;20172;-80
2021/10/31 05:57:55;;;;;;;138.07;56.08;;;;;;;;;;4995739;28;20137;-80
2021/10/31 06:00:22;;;;;;;122.13;53.08;;;;;;;;;;5003724;28;20039;-81
2021/10/31 06:02:48;;;;;;;141.32;52.95;;;;;;;;;;4988455;28;20042;-80
2021/10/31 06:05:15;;;;;;;120.63;51.20;;;;;;;;;;4996787;28;20100;-79
2021/10/31 06:07:42;;;;;;;136.00;53.88;;;;;;;;;;5013672;28;20525;-81
2021/10/31 06:10:08;;;;;;;136.07;54.17;;;;;;;;;;5012398;28;20133;-80
2021/10/31 06:12:35;;;;;;;140.38;54.85;;;;;;;;;;5011056;28;20081;-81
2021/10/31 06:15:02;;;;;;;159.18;56.08;;;;;;;;;;4989201;28;20101;-80
2021/10/31 06:17:28;;;;;;;128.48;53.20;;;;;;;;;;5000180;28;20050;-80
2021/10/31 06:19:54;;;;;;;135.43;51.92;;;;;;;;;;5000710;28;20561;-80
2021/10/31 06:22:20;;;;;;;125.75;52.38;;;;;;;;;;4990142;28;20073;-80
2021/10/31 06:24:46;;;;;;;131.57;50.65;;;;;;;;;;4992408;28;20149;-80
2021/10/31 06:27:12;;;;;;;123.03;50.08;;;;;;;;;;5006354;28;20049;-81
2021/10/31 06:29:38;;;;;;;111.47;50.00;;;;;;;;;;5011141;28;20046;-80
2021/10/31 06:32:05;;;;;;;114.82;50.08;;;;;;;;;;4992488;28;20073;-78
2021/10/31 06:34:31;;;;;;;109.40;47.83;;;;;;;;;;4998420;28;20123;-79
2021/10/31 06:36:57;;;;;;;109.85;48.72;;;;;;;;;;5008460;28;20100;-77
2021/10/31 06:39:23;;;;;;;116.05;46.22;;;;;;;;;;5009018;28;20046;-80
2021/10/31 06:41:49;;;;;;;121.40;48.63;;;;;;;;;;5006283;28;20046;-79
2021/10/31 06:44:15;;;;;;;93.78;44.35;;;;;;;;;;4989026;28;20045;-80
2021/10/31 06:46:41;;;;;;;98.50;44.25;;;;;;;;;;4981109;28;20041;-79
2021/10/31 06:49:09;;;;;;;104.85;44.17;;;;;;;;;;5003409;28;20513;-78
2021/10/31 06:51:35;;;;;;;97.03;41.85;;;;;;;;;;5001869;28;20145;-79
2021/10/31 06:54:01;;;;;;;84.45;40.20;;;;;;;;;;4994030;28;20069;-81
2021/10/31 06:56:28;;;;;;;79.13;39.20;;;;;;;;;;4992717;28;20050;-81
2021/10/31 06:58:54;;;;;;;87.43;39.50;;;;;;;;;;5007387;28;20050;-82
2021/10/31 07:01:21;;;;;;;67.57;35.47;;;;;;;;;;4997491;28;20046;-81
2021/10/31 07:03:48;;;;;;;70.53;36.95;;;;;;;;;;5008420;28;20100;-79
2021/10/31 07:06:15;;;;;;;68.93;35.53;;;;;;;;;;5026849;28;20563;-80
2021/10/31 07:08:42;;;;;;;78.20;36.92;;;;;;;;;;5005295;28;20054;-81
2021/10/31 07:11:08;;;;;;;69.78;37.28;;;;;;;;;;5009785;28;20481;-81
2021/10/31 07:13:34;;;;;;;82.97;38.83;;;;;;;;;;4998350;28;20046;-80
2021/10/31 07:16:01;;;;;;;83.28;39.63;;;;;;;;;;4996694;28;20489;-79
2021/10/31 07:18:27;;;;;;;69.50;35.45;;;;;;;;;;4982707;28;20050;-81
2021/10/31 07:20:53;;;;;;;78.22;39.20;;;;;;;;;;4990450;28;20095;-80
2021/10/31 07:23:19;;;;;;;80.22;37.38;;;;;;;;;;4993598;28;20470;-79
2021/10/31 07:25:45;;;;;;;83.93;37.40;;;;;;;;;;5002540;28;20038;-86
2021/10/31 07:28:11;;;;;;;69.30;36.72;;;;;;;;;;5011551;28;20053;-81
2021/10/31 07:30:38;;;;;;;76.05;37.75;;;;;;;;;;5001158;28;20047;-76
2021/10/31 07:33:04;;;;;;;78.68;38.13;;;;;;;;;;4998855;28;20074;-79
2021/10/31 07:35:31;;;;;;;67.22;35.50;;;;;;;;;;5003833;28;20111;-82
2021/10/31 07:37:57;;;;;;;68.63;35.72;;;;;;;;;;4990021;28;20069;-80
2021/10/31 07:40:23;;;;;;;57.65;35.53;;;;;;;;;;4997639;28;20121;-82
2021/10/31 07:42:50;;;;;;;68.85;35.38;;;;;;;;;;4995052;28;20038;-82
2021/10/31 07:45:16;;;;;;;71.55;37.20;;;;;;;;;;4998736;28;20050;-83
2021/10/31 07:47:42;;;;;;;59.40;34.30;;;;;;;;;;4991531;28;20052;-91
2021/10/31 07:50:09;;;;;;;61.88;35.33;;;;;;;;;;4994992;28;20051;-89
2021/10/31 07:52:41;;;;;;;57.85;33.10;;;;;;;;;;5006437;28;20524;-90
2021/10/31 07:55:09;;;;;;;60.97;35.65;;;;;;;;;;5012981;28;20520;-82
2021/10/31 07:57:35;;;;;;;65.90;35.20;;;;;;;;;;4995700;28;20378;-80
2021/10/31 08:00:01;;;;;;;53.88;32.97;;;;;;;;;;4977295;28;20046;-79
2021/10/31 08:02:27;;;;;;;62.83;34.00;;;;;;;;;;5021281;28;20056;-80
2021/10/31 08:04:53;;;;;;;58.22;34.78;;;;;;;;;;4975469;28;20116;-80
2021/10/31 08:07:26;;;;;;;57.20;33.00;;;;;;;;;;4997565;28;20509;-80
2021/10/31 08:09:52;;;;;;;57.80;33.60;;;;;;;;;;4990301;28;20114;-81
2021/10/31 08:12:19;;;;;;;57.92;32.35;;;;;;;;;;4984575;28;20387;-80
2021/10/31 08:14:45;;;;;;;57.33;32.40;;;;;;;;;;5011015;28;20049;-80
2021/10/31 08:17:11;;;;;;;45.47;28.48;;;;;;;;;;5011504;28;20050;-80
2021/10/31 08:19:37;;;;;;;50.97;30.52;;;;;;;;;;5010540;28;20070;-80
2021/10/31 08:22:03;;;;;;;51.13;30.23;;;;;;;;;;4990144;28;20101;-80
2021/10/31 08:24:29;;;;;;;48.67;30.65;;;;;;;;;;5006705;28;20402;-79
2021/10/31 08:26:55;;;;;;;51.05;30.70;;;;;;;;;;5010937;28;20053;-78
2021/10/31 08:29:23;;;;;;;44.08;29.17;;;;;;;;;;4995062;28;20053;-79
2021/10/31 08:31:52;;;;;;;44.83;27.70;;;;;;;;;;5003518;28;20054;-80
2021/10/31 08:34:18;;;;;;;50.42;29.55;;;;;;;;;;4984032;28;20043;-80
2021/10/31 08:36:45;;;;;;;56.78;31.75;;;;;;;;;;4975862;28;20050;-79
2021/10/31 08:39:11;;;;;;;52.28;28.85;;;;;;;;;;4997396;28;20371;-80
2021/10/31 08:41:37;;;;;;;47.17;29.92;;;;;;;;;;4993551;28;20049;-80
2021/10/31 08:44:03;;;;;;;40.20;28.13;;;;;;;;;;5010891;28;20560;-82
2021/10/31 08:46:30;;;;;;;44.80;30.00;;;;;;;;;;4980808;28;20053;-80
2021/10/31 08:48:57;;;;;;;42.60;29.38;;;;;;;;;;4994153;28;20050;-80
2021/10/31 08:51:25;;;;;;;38.60;26.02;;;;;;;;;;4999378;28;20390;-80
2021/10/31 08:53:52;;;;;;;43.95;28.35;;;;;;;;;;5008974;28;20557;-79
2021/10/31 08:56:18;;;;;;;43.22;29.50;;;;;;;;;;5014801;28;20045;-81
2021/10/31 08:58:44;;;;;;;38.50;26.45;;;;;;;;;;5007481;28;20053;-79
2021/10/31 09:01:11;;;;;;;34.60;27.10;;;;;;;;;;5002307;28;20061;-80
2021/10/31 09:03:38;;;;;;;39.88;26.88;;;;;;;;;;5007550;28;20038;-79
2021/10/31 09:06:04;;;;;;;38.42;27.67;;;;;;;;;;5005920;28;20054;-80
2021/10/31 09:08:30;;;;;;;34.88;26.20;;;;;;;;;;5007350;28;20038;-79
2021/10/31 09:10:56;;;;;;;38.53;26.65;;;;;;;;;;5001101;28;20054;-84
2021/10/31 09:13:23;;;;;;;35.38;26.35;;;;;;;;;;5007360;28;20070;-83
2021/10/31 09:15:50;;;;;;;42.22;26.20;;;;;;;;;;5007587;28;20190;-80
2021/10/31 09:18:16;;;;;;;33.85;25.20;;;;;;;;;;5000038;28;20074;-84
2021/10/31 09:20:42;;;;;;;37.97;26.25;;;;;;;;;;5006261;28;20118;-84
2021/10/31 09:23:10;;;;;;;31.83;23.77;;;;;;;;;;5004194;28;20046;-85
2021/10/31 09:25:36;;;;;;;32.15;24.17;;;;;;;;;;5009747;28;20134;-87
2021/10/31 09:28:03;;;;;;;28.50;23.15;;;;;;;;;;4989548;28;20478;-90
2021/10/31 09:30:30;;;;;;;30.63;21.63;;;;;;;;;;4989230;28;20045;-88
2021/10/31 09:32:57;;;;;;;26.50;20.73;;;;;;;;;;4983623;28;20165;-89
2021/10/31 09:35:27;;;;;;;27.60;22.17;;;;;;;;;;4972680;28;20100;-88
2021/10/31 09:37:57;;;;;;;27.73;19.48;;;;;;;;;;5002848;28;20042;-87
2021/10/31 09:40:23;;;;;;;22.80;18.65;;;;;;;;;;4991618;28;20103;-88
2021/10/31 09:42:51;;;;;;;23.80;19.08;;;;;;;;;;4985765;28;20383;-89
2021/10/31 09:45:19;;;;;;;25.73;17.50;;;;;;;;;;4985542;28;20113;-92
2021/10/31 09:47:46;;;;;;;20.33;16.85;;;;;;;;;;4985463;28;20393;-81
2021/10/31 09:50:12;;;;;;;20.35;16.98;;;;;;;;;;4988034;28;20065;-81
2021/10/31 09:52:38;;;;;;;19.63;16.02;;;;;;;;;;4991125;28;20121;-91
2021/10/31 09:55:05;;;;;;;20.83;16.95;;;;;;;;;;4998701;28;20510;-89
2021/10/31 09:57:31;;;;;;;17.88;15.55;;;;;;;;;;4976157;28;20053;-82
2021/10/31 09:59:58;;;;;;;22.55;16.77;;;;;;;;;;4987900;28;20437;-84
2021/10/31 10:05:17;;;;;;;17.95;15.55;;;;;;;;;;4997274;28;20053;-85
2021/10/31 10:07:43;;;;;;;20.50;15.23;;;;;;;;;;4985784;28;20049;-83
2021/10/31 10:10:12;;;;;;;15.75;13.45;;;;;;;;;;5004394;28;20108;-83
2021/10/31 10:12:38;;;;;;;17.20;13.13;;;;;;;;;;5000940;28;20111;-83
2021/10/31 10:15:06;;;;;;;19.52;12.90;;;;;;;;;;5003923;28;20046;-83
2021/10/31 10:17:43;;;;;;;17.92;12.15;;;;;;;;;;5004842;28;20101;-83
2021/10/31 10:20:11;;;;;;;14.95;12.02;;;;;;;;;;4983998;28;20058;-82
2021/10/31 10:22:38;;;;;;;16.20;12.60;;;;;;;;;;4997075;28;20064;-82
2021/10/31 10:25:05;;;;;;;14.75;11.73;;;;;;;;;;5000973;28;20405;-85
2021/10/31 10:27:35;;;;;;;14.05;10.90;;;;;;;;;;4990560;28;20117;-79
2021/10/31 10:30:12;;;;;;;13.98;10.88;;;;;;;;;;4997001;28;20063;-78
2021/10/31 10:32:48;;;;;;;17.52;11.05;;;;;;;;;;4999837;28;20052;-84
2021/10/31 10:35:17;;;;;;;13.05;11.65;;;;;;;;;;4993046;28;20477;-82
2021/10/31 10:37:43;;;;;;;14.90;10.40;;;;;;;;;;4991559;28;20481;-83
2021/10/31 10:40:14;;;;;;;15.73;9.05;;;;;;;;;;4995358;28;20057;-87
2021/10/31 10:42:44;;;;;;;11.30;8.90;;;;;;;;;;4998243;28;20372;-88
2021/10/31 10:45:16;;;;;;;12.57;9.43;;;;;;;;;;5005260;28;20440;-84
2021/10/31 10:47:44;;;;;;;11.70;9.07;;;;;;;;;;5009332;28;20045;-81
2021/10/31 10:50:23;;;;;;;10.57;9.48;;;;;;;;;;5022137;28;20046;-78
2021/10/31 10:52:49;;;;;;;15.15;9.57;;;;;;;;;;4987623;28;20417;-80
2021/10/31 10:55:20;;;;;;;10.85;8.05;;;;;;;;;;5007593;28;20042;-82
2021/10/31 10:57:48;;;;;;;11.43;8.48;;;;;;;;;;4997435;28;20041;-81
2021/10/31 11:00:22;;;;;;;11.60;8.05;;;;;;;;;;5012210;28;20467;-82
2021/10/31 11:02:49;;;;;;;8.27;6.50;;;;;;;;;;4990611;28;20069;-83
2021/10/31 11:05:19;;;;;;;8.38;7.55;;;;;;;;;;4991205;28;20050;-84
2021/10/31 11:07:49;;;;;;;10.73;8.13;;;;;;;;;;4988169;28;20050;-84
2021/10/31 11:10:26;;;;;;;11.50;7.30;;;;;;;;;;4992013;28;20058;-84
2021/10/31 11:12:53;;;;;;;11.35;7.10;;;;;;;;;;5009787;28;20501;-83
2021/10/31 11:15:30;;;;;;;13.40;6.25;;;;;;;;;;5007085;28;20046;-81
2021/10/31 11:17:57;;;;;;;11.60;6.68;;;;;;;;;;5004155;28;20102;-81
2021/10/31 11:20:28;;;;;;;11.65;7.07;;;;;;;;;;5001038;28;20508;-83
2021/10/31 11:22:57;;;;;;;8.57;6.50;;;;;;;;;;5007923;28;20086;-83
2021/10/31 11:25:24;;;;;;;9.63;6.88;;;;;;;;;;5022542;28;20044;-80
2021/10/31 11:27:51;;;;;;;10.27;7.38;;;;;;;;;;5006059;28;20046;-80
2021/10/31 11:30:19;;;;;;;10.45;6.68;;;;;;;;;;5013415;28;20078;-84
2021/10/31 11:32:45;;;;;;;9.13;7.13;;;;;;;;;;5010703;28;20285;-81
2021/10/31 11:35:13;;;;;;;9.98;7.32;;;;;;;;;;4990238;28;20049;-82
2021/10/31 11:37:41;;;;;;;10.02;7.95;;;;;;;;;;5008473;28;20064;-85
2021/10/31 11:40:08;;;;;;;9.20;7.43;;;;;;;;;;5040858;28;20077;-83
2021/10/31 11:42:42;;;;;;;10.10;8.07;;;;;;;;;;4992680;28;20124;-80
2021/10/31 11:45:08;;;;;;;;;;;;;;;;;;5010139;28;20370;-86
2021/10/31 11:47:35;;;;;;;14.27;7.85;;;;;;;;;;4991019;28;19925;-83
2021/10/31 11:50:04;;;;;;;11.70;8.60;;;;;;;;;;4987906;28;20280;-79
2021/10/31 11:52:43;;;;;;;14.07;8.15;;;;;;;;;;4999529;28;20037;-81
2021/10/31 11:55:25;;;;;;;11.88;7.40;;;;;;;;;;5001145;28;20046;-84
2021/10/31 11:58:03;;;;;;;8.75;6.97;;;;;;;;;;4981171;28;20053;-81
2021/10/31 12:00:30;;;;;;;10.48;6.70;;;;;;;;;;4998831;28;20050;-81
2021/10/31 12:03:01;;;;;;;11.20;6.80;;;;;;;;;;4984261;28;20054;-81
2021/10/31 12:05:36;;;;;;;10.50;7.13;;;;;;;;;;4981727;28;20116;-91
2021/10/31 12:08:03;;;;;;;9.88;7.10;;;;;;;;;;4990117;28;20678;-85
2021/10/31 12:10:31;;;;;;;11.18;6.88;;;;;;;;;;4989481;28;20062;-84
2021/10/31 12:13:12;;;;;;;9.70;6.85;;;;;;;;;;4980906;28;20054;-78
2021/10/31 12:15:38;;;;;;;8.80;6.72;;;;;;;;;;4986514;28;20184;-77
2021/10/31 12:18:08;;;;;;;10.95;6.50;;;;;;;;;;4995773;28;20058;-75
2021/10/31 12:20:52;;;;;;;8.88;6.95;;;;;;;;;;5008259;28;20057;-78
2021/10/31 12:23:23;;;;;;;10.70;7.40;;;;;;;;;;5003885;28;20144;-77
2021/10/31 12:25:49;;;;;;;8.48;6.55;;;;;;;;;;4998792;28;20054;-77
2021/10/31 12:28:34;;;;;;;10.48;5.97;;;;;;;;;;4994709;28;20050;-77
2021/10/31 12:31:20;;;;;;;7.47;5.40;;;;;;;;;;4993071;28;20092;-78
2021/10/31 12:34:06;;;;;;;11.52;6.10;;;;;;;;;;4992628;28;20390;-77
2021/10/31 12:36:32;;;;;;;8.27;5.93;;;;;;;;;;4980017;28;20210;-78
2021/10/31 12:38:59;;;;;;;7.20;4.97;;;;;;;;;;4991540;28;20050;-78
2021/10/31 12:41:33;;;;;;;10.98;5.45;;;;;;;;;;5001089;28;20108;-78
2021/10/31 12:44:11;;;;;;;8.57;4.85;;;;;;;;;;4998127;28;20050;-77
2021/10/31 12:46:38;;;;;;;5.18;4.47;;;;;;;;;;5007948;28;20468;-77
2021/10/31 12:49:05;;;;;;;9.68;5.35;;;;;;;;;;5000180;28;20093;-78
2021/10/31 12:51:41;;;;;;;7.25;4.68;;;;;;;;;;4993485;28;20103;-77
2021/10/31 12:54:08;;;;;;;9.63;4.45;;;;;;;;;;4975428;28;20073;-77
2021/10/31 12:56:34;;;;;;;6.53;4.28;;;;;;;;;;4997658;28;20057;-78
2021/10/31 12:59:06;;;;;;;7.68;4.80;;;;;;;;;;4992422;28;20607;-77
2021/10/31 13:01:33;;;;;;;8.23;4.55;;;;;;;;;;5006879;28;20136;-76
2021/10/31 13:04:03;;;;;;;7.70;4.80;;;;;;;;;;4999356;28;20088;-82
2021/10/31 13:06:49;;;;;;;5.90;4.40;;;;;;;;;;4985674;28;20057;-77
2021/10/31 13:09:16;;;;;;;7.57;5.38;;;;;;;;;;5007874;28;20080;-77
2021/10/31 13:11:43;;;;;;;5.95;4.93;;;;;;;;;;4988285;28;20502;-83
2021/10/31 13:14:26;;;;;;;24.63;5.50;;;;;;;;;;4991169;28;20142;-78
2021/10/31 13:17:03;;;;;;;8.18;4.80;;;;;;;;;;5007229;28;20042;-77
2021/10/31 13:19:36;;;;;;;6.22;4.78;;;;;;;;;;4999812;28;20042;-78
2021/10/31 13:22:03;;;;;;;8.93;5.88;;;;;;;;;;5000368;28;20046;-77
2021/10/31 13:24:31;;;;;;;8.30;5.55;;;;;;;;;;4991911;28;20046;-77
2021/10/31 13:26:57;;;;;;;9.40;5.18;;;;;;;;;;4988721;28;20105;-79
2021/10/31 13:29:37;;;;;;;6.72;5.25;;;;;;;;;;5009245;28;20050;-80
2021/10/31 13:32:11;;;;;;;7.10;5.22;;;;;;;;;;5011200;28;20054;-80
2021/10/31 13:34:38;;;;;;;6.55;5.15;;;;;;;;;;5008110;28;20579;-79
2021/10/31 13:37:08;;;;;;;8.57;5.75;;;;;;;;;;5007974;28;20061;-78
2021/10/31 13:39:34;;;;;;;7.30;5.18;;;;;;;;;;5005109;28;20107;-84
2021/10/31 13:42:00;;;;;;;8.80;5.32;;;;;;;;;;4998614;28;20423;-84
2021/10/31 13:44:27;;;;;;;8.13;5.70;;;;;;;;;;4999016;28;20049;-82
2021/10/31 13:47:00;;;;;;;7.22;6.03;;;;;;;;;;5001319;28;20206;-79
2021/10/31 13:49:27;;;;;;;8.27;5.00;;;;;;;;;;4995365;28;20069;-81
2021/10/31 13:51:53;;;;;;;6.47;4.93;;;;;;;;;;5002872;28;20060;-80
2021/10/31 13:54:20;;;;;;;5.75;5.03;;;;;;;;;;5000280;28;20054;-81
2021/10/31 13:56:47;;;;;;;7.40;5.03;;;;;;;;;;4999204;28;20051;-80
2021/10/31 13:59:15;;;;;;;6.57;4.53;;;;;;;;;;5016713;28;20058;-82
2021/10/31 14:01:47;;;;;;;8.43;4.50;;;;;;;;;;4985471;28;20165;-78
2021/10/31 14:04:18;;;;;;;7.47;4.15;;;;;;;;;;4999257;28;20579;-79
2021/10/31 14:06:47;;;;;;;6.90;4.07;;;;;;;;;;4985359;28;20042;-85
2021/10/31 14:09:16;;;;;;;9.77;4.50;;;;;;;;;;5003312;28;20131;-80
2021/10/31 14:11:51;;;;;;;7.47;4.20;;;;;;;;;;4992237;28;20062;-79
2021/10/31 14:14:37;;;;;;;7.40;3.70;;;;;;;;;;4986168;28;20065;-87
2021/10/31 14:17:10;;;;;;;6.38;3.42;;;;;;;;;;4991296;28;20050;-86
2021/10/31 14:19:36;;;;;;;6.32;3.30;;;;;;;;;;4990837;28;20481;-80
2021/10/31 14:22:03;;;;;;;6.55;3.47;;;;;;;;;;5028091;28;20188;-83
2021/10/31 14:24:30;;;;;;;5.45;3.10;;;;;;;;;;5010837;28;20046;-84
2021/10/31 14:26:56;;;;;;;5.80;3.15;;;;;;;;;;4988241;28;20053;-79
2021/10/31 14:29:27;;;;;;;6.45;3.08;;;;;;;;;;5021354;28;20057;-83